createdAt,value
2022-07-25T00:02:36.102Z,4.30
2022-07-25T00:07:39.111Z,4.10
2022-07-25T00:12:42.107Z,4.43
2022-07-25T00:17:46.453Z,4.13
2022-07-25T00:22:49.408Z,5.40
2022-07-25T00:27:52.445Z,4.40
2022-07-25T00:32:56.738Z,4.20
2022-07-25T00:38:00.093Z,4.53
2022-07-25T00:43:03.140Z,4.50
2022-07-25T00:48:09.322Z,5.13
2022-07-25T00:53:12.338Z,5.22
2022-07-25T00:58:15.548Z,4.60
2022-07-25T01:03:20.568Z,5.05
2022-07-25T01:08:24.059Z,5.60
2022-07-25T01:13:27.220Z,5.40
2022-07-25T01:18:31.760Z,5.00
2022-07-25T01:23:36.188Z,5.03
2022-07-25T01:28:39.341Z,4.93
2022-07-25T01:33:42.658Z,5.00
2022-07-25T01:38:47.324Z,5.30
2022-07-25T01:43:50.494Z,5.18
2022-07-25T01:48:53.527Z,4.97
2022-07-25T01:53:57.868Z,6.00
2022-07-25T01:59:00.957Z,5.50
2022-07-25T02:04:30.458Z,5.40
2022-07-25T02:09:34.974Z,5.18
2022-07-25T02:14:38.068Z,5.88
2022-07-25T02:19:41.622Z,5.18
2022-07-25T02:24:46.060Z,5.28
2022-07-25T02:29:49.020Z,5.63
2022-07-25T02:34:52.016Z,5.00
2022-07-25T02:39:56.416Z,5.07
2022-07-25T02:44:59.321Z,5.82
2022-07-25T02:50:02.454Z,5.72
2022-07-25T02:55:09.807Z,5.30
2022-07-25T03:00:15.044Z,6.03
2022-07-25T03:05:18.730Z,5.72
2022-07-25T03:10:23.134Z,5.93
2022-07-25T03:15:26.125Z,6.13
2022-07-25T03:20:29.136Z,5.85
2022-07-25T03:25:33.556Z,6.00
2022-07-25T03:30:36.693Z,6.20
2022-07-25T03:35:39.661Z,5.80
2022-07-25T03:40:44.092Z,5.55
2022-07-25T03:45:47.110Z,6.72
2022-07-25T03:50:50.105Z,6.47
2022-07-25T03:55:54.371Z,6.32
2022-07-25T04:00:57.377Z,6.63
2022-07-25T04:06:03.103Z,6.97
2022-07-25T04:11:07.609Z,6.10
2022-07-25T04:16:15.083Z,6.32
2022-07-25T04:21:25.330Z,6.38
2022-07-25T04:26:29.743Z,6.97
2022-07-25T04:31:32.791Z,7.20
2022-07-25T04:36:35.887Z,6.97
2022-07-25T04:41:40.380Z,7.00
2022-07-25T04:46:43.370Z,7.13
2022-07-25T04:51:46.410Z,6.78
2022-07-25T04:56:50.664Z,7.35
2022-07-25T05:01:53.605Z,7.40
2022-07-25T05:06:56.702Z,7.95
2022-07-25T05:12:01.344Z,7.38
2022-07-25T05:17:04.567Z,7.97
2022-07-25T05:22:07.660Z,7.10
2022-07-25T05:27:12.267Z,7.60
2022-07-25T05:32:15.539Z,6.47
2022-07-25T05:37:18.618Z,5.65
2022-07-25T05:42:23.191Z,4.63
2022-07-25T05:47:26.531Z,3.05
2022-07-25T05:52:29.542Z,3.15
2022-07-25T05:57:34.622Z,3.03
2022-07-25T06:02:37.911Z,2.60
2022-07-25T06:07:41.392Z,2.08
2022-07-25T06:12:45.758Z,1.98
2022-07-25T06:17:50.577Z,2.00
2022-07-25T06:22:53.866Z,1.85
2022-07-25T06:27:58.288Z,1.60
2022-07-25T06:33:01.190Z,1.63
2022-07-25T06:38:04.453Z,1.70
2022-07-25T06:43:08.845Z,1.60
2022-07-25T06:48:12.046Z,1.50
2022-07-25T06:53:15.069Z,1.42
2022-07-25T06:58:19.380Z,1.70
2022-07-25T07:03:25.844Z,1.30
2022-07-25T07:08:28.957Z,1.70
2022-07-25T07:13:33.457Z,1.27
2022-07-25T07:18:36.899Z,1.20
2022-07-25T07:23:40.304Z,1.67
2022-07-25T07:28:44.605Z,1.33
2022-07-25T07:33:48.061Z,1.50
2022-07-25T07:38:51.031Z,1.50
2022-07-25T07:43:56.493Z,1.83
2022-07-25T07:48:59.830Z,1.90
2022-07-25T07:54:20.363Z,2.08
2022-07-25T07:59:24.847Z,1.65
2022-07-25T08:04:27.838Z,1.15
2022-07-25T08:09:30.775Z,1.45
2022-07-25T08:20:37.833Z,2.05
2022-07-25T08:25:42.892Z,2.00
2022-07-25T08:30:47.570Z,1.48
2022-07-25T08:35:53.619Z,2.03
2022-07-25T08:40:58.069Z,2.05
2022-07-25T08:46:04.296Z,1.95
2022-07-25T08:51:08.977Z,1.48
2022-07-25T08:56:17.407Z,1.98
2022-07-25T09:01:25.283Z,2.20
2022-07-25T09:06:29.663Z,1.48
2022-07-25T09:11:36.665Z,2.25
2022-07-25T09:16:44.445Z,1.60
2022-07-25T09:22:00.188Z,1.85
2022-07-25T09:27:12.432Z,1.58
2022-07-25T09:32:18.852Z,1.65
2022-07-25T09:37:27.905Z,2.13
2022-07-25T09:42:33.471Z,1.63
2022-07-25T09:47:50.643Z,1.83
2022-07-25T09:52:55.207Z,1.80
2022-07-25T09:57:58.786Z,1.70
2022-07-25T10:03:19.210Z,1.77
2022-07-25T10:08:23.555Z,1.95
2022-07-25T10:13:34.291Z,2.15
2022-07-25T10:18:49.649Z,1.88
2022-07-25T10:24:00.112Z,1.85
2022-07-25T10:29:10.053Z,2.08
2022-07-25T10:34:14.775Z,1.48
2022-07-25T10:39:19.693Z,2.22
2022-07-25T10:44:22.849Z,1.70
2022-07-25T10:49:32.057Z,1.50
2022-07-25T10:54:36.943Z,2.15
2022-07-25T10:59:41.397Z,2.03
2022-07-25T11:04:46.946Z,2.10
2022-07-25T11:09:58.403Z,2.42
2022-07-25T11:15:03.368Z,2.20
2022-07-25T11:20:10.635Z,3.00
2022-07-25T11:25:15.266Z,2.85
2022-07-25T11:30:21.167Z,2.75
2022-07-25T11:35:27.569Z,2.83
2022-07-25T11:40:32.714Z,2.53
2022-07-25T11:45:36.605Z,1.77
2022-07-25T11:50:43.113Z,2.05
2022-07-25T11:55:47.265Z,2.40
2022-07-25T12:00:51.137Z,2.13
2022-07-25T12:05:56.236Z,2.13
2022-07-25T12:10:59.252Z,2.30
2022-07-25T12:16:02.339Z,1.90
2022-07-25T12:21:07.192Z,2.25
2022-07-25T12:26:13.518Z,2.35
2022-07-25T12:31:16.535Z,2.28
2022-07-25T12:36:20.961Z,1.98
2022-07-25T12:41:23.982Z,2.08
2022-07-25T12:46:27.497Z,2.20
2022-07-25T12:51:32.049Z,1.98
2022-07-25T12:56:35.873Z,2.20
2022-07-25T13:01:38.960Z,2.10
2022-07-25T13:06:43.510Z,2.03
2022-07-25T13:11:46.748Z,2.33
2022-07-25T13:16:50.501Z,1.98
2022-07-25T13:21:55.056Z,2.55
2022-07-25T13:26:58.107Z,2.70
2022-07-25T13:32:01.205Z,2.65
2022-07-25T13:37:07.124Z,2.63
2022-07-25T13:42:10.197Z,2.15
2022-07-25T13:47:13.234Z,2.17
2022-07-25T13:52:18.340Z,1.88
2022-07-25T13:57:21.440Z,2.03
2022-07-25T14:02:24.605Z,1.75
2022-07-25T14:07:29.008Z,1.27
2022-07-25T14:12:31.996Z,1.65
2022-07-25T14:17:35.320Z,1.23
2022-07-25T14:22:42.024Z,1.60
2022-07-25T14:27:46.421Z,1.80
2022-07-25T14:32:49.457Z,1.45
2022-07-25T14:37:53.877Z,1.35
2022-07-25T14:42:57.360Z,1.20
2022-07-25T14:48:00.399Z,1.30
2022-07-25T14:53:06.305Z,1.38
2022-07-25T14:58:10.407Z,1.50
2022-07-25T15:03:15.467Z,1.60
2022-07-25T15:08:20.011Z,1.50
2022-07-25T15:13:31.893Z,1.10
2022-07-25T15:18:52.163Z,1.35
2022-07-25T15:24:00.041Z,1.25
2022-07-25T15:29:03.345Z,1.33
2022-07-25T15:34:06.844Z,1.42
2022-07-25T15:39:12.008Z,1.55
2022-07-25T15:44:15.084Z,1.45
2022-07-25T15:49:18.352Z,1.50
2022-07-25T15:54:26.335Z,1.73
2022-07-25T15:59:32.411Z,1.70
2022-07-25T16:04:35.619Z,1.67
2022-07-25T16:09:40.227Z,1.40
2022-07-25T16:14:43.221Z,1.27
2022-07-25T16:19:46.518Z,1.92
2022-07-25T16:24:52.281Z,1.63
2022-07-25T16:29:55.301Z,2.10
2022-07-25T16:34:58.649Z,1.35
2022-07-25T16:40:03.176Z,1.40
2022-07-25T16:45:06.854Z,1.33
2022-07-25T16:50:10.510Z,1.50
2022-07-25T16:55:15.302Z,1.42
2022-07-25T17:00:18.841Z,1.27
2022-07-25T17:05:22.372Z,1.75
2022-07-25T17:10:26.986Z,0.95
2022-07-25T17:15:29.953Z,1.25
2022-07-25T17:20:33.737Z,1.60
2022-07-25T17:25:38.344Z,1.42
2022-07-25T17:30:41.376Z,2.20
2022-07-25T17:35:44.513Z,2.33
2022-07-25T17:40:48.857Z,2.00
2022-07-25T17:45:51.945Z,2.00
2022-07-25T17:50:55.143Z,2.50
2022-07-25T17:55:59.605Z,2.63
2022-07-25T18:01:05.832Z,1.83
2022-07-25T18:06:11.779Z,1.55
2022-07-25T18:11:16.217Z,2.22
2022-07-25T18:16:19.314Z,1.77
2022-07-25T18:21:23.945Z,1.73
2022-07-25T18:26:28.532Z,1.55
2022-07-25T18:31:31.758Z,1.60
2022-07-25T18:36:35.469Z,2.10
2022-07-25T18:41:39.805Z,2.17
2022-07-25T18:46:45.691Z,2.08
2022-07-25T18:51:48.992Z,1.60
2022-07-25T18:56:53.642Z,1.90
2022-07-25T19:01:56.664Z,1.88
2022-07-25T19:06:59.730Z,1.65
2022-07-25T19:12:04.274Z,2.10
2022-07-25T19:17:07.344Z,1.60
2022-07-25T19:22:10.522Z,1.50
2022-07-25T19:27:15.059Z,1.55
2022-07-25T19:32:18.407Z,1.90
2022-07-25T19:37:21.474Z,1.90
2022-07-25T19:42:25.852Z,2.40
2022-07-25T19:47:29.835Z,2.80
2022-07-25T19:52:33.085Z,2.10
2022-07-25T19:57:37.467Z,1.95
2022-07-25T20:02:40.831Z,1.63
2022-07-25T20:07:44.070Z,2.22
2022-07-25T20:12:49.009Z,2.22
2022-07-25T20:17:52.050Z,2.00
2022-07-25T20:22:55.114Z,2.15
2022-07-25T20:27:59.659Z,2.03
2022-07-25T20:33:07.931Z,2.00
2022-07-25T20:38:12.545Z,2.40
2022-07-25T20:43:18.498Z,2.35
2022-07-25T20:48:21.512Z,2.15
2022-07-25T20:53:25.336Z,2.80
2022-07-25T20:58:29.747Z,2.70
2022-07-25T21:03:32.721Z,3.50
2022-07-25T21:08:35.807Z,2.20
2022-07-25T21:13:40.251Z,2.63
2022-07-25T21:18:43.805Z,2.72
2022-07-25T21:23:47.088Z,3.10
2022-07-25T21:28:51.681Z,2.80
2022-07-25T21:33:54.971Z,2.55
2022-07-25T21:38:58.233Z,2.83
2022-07-25T21:44:02.748Z,3.05
2022-07-25T21:49:40.985Z,2.65
2022-07-25T21:54:45.774Z,3.13
2022-07-25T21:59:50.354Z,2.92
2022-07-25T22:04:53.434Z,3.17
2022-07-25T22:09:56.778Z,2.53
2022-07-25T22:15:01.844Z,3.20
2022-07-25T22:20:09.112Z,3.15
2022-07-25T22:25:12.376Z,2.95
2022-07-25T22:30:19.481Z,2.22
2022-07-25T22:35:22.834Z,2.90
2022-07-25T22:40:26.488Z,2.95
2022-07-25T22:45:31.245Z,2.22
2022-07-25T22:50:34.689Z,2.72
2022-07-25T22:55:38.237Z,3.13
2022-07-25T23:00:43.105Z,2.20
2022-07-25T23:05:46.196Z,3.13
2022-07-25T23:10:49.311Z,2.65
2022-07-25T23:15:53.881Z,2.42
2022-07-25T23:20:57.379Z,2.17
2022-07-25T23:26:00.569Z,2.30
2022-07-25T23:31:05.128Z,3.03
2022-07-25T23:36:08.768Z,2.30
2022-07-25T23:41:11.775Z,2.38
2022-07-25T23:46:16.363Z,3.28
2022-07-25T23:51:21.247Z,3.13
2022-07-25T23:56:24.617Z,2.25
